Minnesota Lake, Minnesota
Current Conditions -  °F | °C
As of 5:14 AM on Sunday 23 Nov 2014 (Local Time) from KACQ Reporting Station
Overcast Overcast  
Wind Chill: 50°   Ceiling: 700
Heat Index: 50°   Visibility: 7mi
Dew Point: 46°   Wind: 9mph
Humidity: 87%   Direction: 200°SSW
Pressure: 29.47"   Gusts: NA
Location:  43.84°N, 93.83°W
Report Text: KACQ 231114Z AUTO 20008KT 7SM OVC007 10/08 A2947 RMK AO2
Loading
Personal Weather Stations






























Interactive Weather Map New forecast layout! Learn more

10-Day Weather Forecast

Advertisements
Track Severe Weather on mobile